Time;durP1;ratioP1;P1;durP2;ratioP2;P2;SDS_P1;SDS_P2;PMS_P1;PMS_P2;Temp;Humidity;BMP_temperature;BMP_pressure;BME280_temperature;BME280_humidity;BME280_pressure;Samples;Min_cycle;Max_cycle;Signal;HPM_P1;HPM_P2
2021/07/22 00:01:45;;;;;;;0.10;0.10;;;;;;;16.63;64.42;98909.78;4962306;28;20043;-75
2021/07/22 00:04:11;;;;;;;0.10;0.10;;;;;;;16.58;64.67;98912.28;4954369;28;20512;-76
2021/07/22 00:06:36;;;;;;;0.10;0.10;;;;;;;16.56;64.87;98908.94;4955077;28;20046;-76
2021/07/22 00:09:02;;;;;;;0.10;0.10;;;;;;;16.57;64.96;98916.09;4955767;28;20293;-77
2021/07/22 00:11:28;;;;;;;0.10;0.10;;;;;;;16.54;65.30;98913.75;4981040;28;20046;-75
2021/07/22 00:13:54;;;;;;;0.10;0.10;;;;;;;16.59;65.14;98913.13;4952609;28;20505;-75
2021/07/22 00:16:20;;;;;;;0.10;0.10;;;;;;;16.56;65.25;98925.31;4964828;28;20445;-75
2021/07/22 00:18:45;;;;;;;0.10;0.10;;;;;;;16.55;65.44;98923.63;4952028;28;20444;-74
2021/07/22 00:21:11;;;;;;;0.10;0.10;;;;;;;16.52;65.47;98921.31;4951040;28;20039;-76
2021/07/22 00:23:38;;;;;;;0.10;0.10;;;;;;;16.53;65.50;98920.28;4972418;28;20043;-75
2021/07/22 00:26:04;;;;;;;0.15;0.15;;;;;;;16.48;65.79;98922.78;4965105;28;20066;-75
2021/07/22 00:28:30;;;;;;;0.10;0.10;;;;;;;16.49;65.74;98923.59;4966267;28;20535;-77
2021/07/22 00:30:57;;;;;;;0.10;0.10;;;;;;;16.47;66.01;98926.56;4966306;28;20051;-77
2021/07/22 00:33:24;;;;;;;0.10;0.10;;;;;;;16.47;65.93;98929.28;4981204;28;20429;-75
2021/07/22 00:35:50;;;;;;;0.10;0.10;;;;;;;16.38;65.96;98934.09;4961243;28;20041;-75
2021/07/22 00:38:16;;;;;;;0.10;0.10;;;;;;;16.38;66.22;98938.69;4966320;28;20409;-75
2021/07/22 00:40:46;;;;;;;0.10;0.10;;;;;;;16.35;66.49;98934.50;4964962;28;20042;-75
2021/07/22 00:43:12;;;;;;;0.10;0.10;;;;;;;16.33;66.59;98946.66;4980297;28;20089;-74
2021/07/22 00:45:38;;;;;;;0.10;0.10;;;;;;;16.25;66.93;98938.69;4962583;28;20047;-75
2021/07/22 00:48:05;;;;;;;0.10;0.10;;;;;;;16.22;67.16;98944.53;4935344;28;20050;-77
2021/07/22 00:50:31;;;;;;;0.10;0.10;;;;;;;16.25;66.83;98938.69;4942590;28;20095;-77
2021/07/22 00:52:58;;;;;;;0.10;0.10;;;;;;;16.14;67.09;98935.50;4976112;28;20039;-75
2021/07/22 00:55:29;;;;;;;0.10;0.10;;;;;;;16.12;67.11;98932.16;4966253;28;20441;-75
2021/07/22 00:57:56;;;;;;;0.10;0.10;;;;;;;16.12;67.06;98945.78;4962576;28;20137;-76
2021/07/22 01:00:23;;;;;;;0.10;0.10;;;;;;;16.10;67.31;98941.56;4953447;28;20098;-75
2021/07/22 01:02:48;;;;;;;0.15;0.15;;;;;;;16.13;67.25;98947.44;4956324;28;20038;-77
2021/07/22 01:05:15;;;;;;;0.10;0.10;;;;;;;16.12;67.26;98945.78;4971313;28;20113;-75
2021/07/22 01:07:41;;;;;;;0.10;0.10;;;;;;;16.05;67.17;98944.03;4962427;28;20153;-74
2021/07/22 01:10:09;;;;;;;0.10;0.10;;;;;;;16.08;66.99;98946.38;4956706;28;20081;-74
2021/07/22 01:12:36;;;;;;;0.10;0.10;;;;;;;16.06;67.19;98941.13;4984558;28;20039;-75
2021/07/22 01:15:03;;;;;;;0.10;0.10;;;;;;;16.01;66.94;98943.59;4970276;28;20206;-76
2021/07/22 01:17:46;;;;;;;0.10;0.10;;;;;;;16.06;66.81;98957.50;4967322;28;20054;-75
2021/07/22 01:20:19;;;;;;;0.10;0.10;;;;;;;16.02;66.90;98949.94;4968144;28;20145;-76
2021/07/22 01:22:48;;;;;;;0.13;0.13;;;;;;;15.97;67.15;98964.16;4975941;28;20034;-76
2021/07/22 01:25:15;;;;;;;0.10;0.10;;;;;;;15.90;67.34;98953.25;4958922;28;20046;-77
2021/07/22 01:27:42;;;;;;;0.10;0.10;;;;;;;15.88;67.67;98955.31;4970906;28;20038;-75
2021/07/22 01:30:11;;;;;;;0.10;0.10;;;;;;;15.92;67.69;98955.75;4946181;29;20039;-75
2021/07/22 01:32:38;;;;;;;0.10;0.10;;;;;;;15.88;67.66;98954.47;4933033;28;20070;-76
2021/07/22 01:35:06;;;;;;;0.10;0.10;;;;;;;15.87;67.83;98963.72;4947144;28;20054;-74
2021/07/22 01:37:32;;;;;;;0.10;0.10;;;;;;;15.85;68.12;98965.78;4955713;28;20496;-74
2021/07/22 01:40:00;;;;;;;0.20;0.20;;;;;;;15.79;68.24;98961.13;4983955;28;20142;-75
2021/07/22 01:42:26;;;;;;;0.10;0.10;;;;;;;15.78;68.42;98959.44;4962291;28;20039;-76
2021/07/22 01:44:52;;;;;;;0.10;0.10;;;;;;;15.81;68.61;98961.78;4956660;28;20122;-74
2021/07/22 01:47:19;;;;;;;0.10;0.10;;;;;;;15.79;68.40;98956.50;4969419;28;20479;-74
2021/07/22 01:49:46;;;;;;;0.10;0.10;;;;;;;15.79;68.62;98961.13;4954388;28;20051;-76
2021/07/22 01:52:12;;;;;;;0.10;0.10;;;;;;;15.78;68.85;98964.91;4967417;28;20177;-75
2021/07/22 01:54:43;;;;;;;0.10;0.10;;;;;;;15.73;68.96;98961.94;4966980;28;20042;-76
2021/07/22 01:57:10;;;;;;;0.10;0.10;;;;;;;15.72;69.01;98971.97;4967766;28;20057;-76
2021/07/22 01:59:40;;;;;;;0.10;0.10;;;;;;;15.74;69.10;98969.06;4966588;28;20453;-76
2021/07/22 02:02:08;;;;;;;0.10;0.10;;;;;;;15.77;69.10;98969.53;4962215;28;20058;-76
2021/07/22 02:04:36;;;;;;;0.10;0.10;;;;;;;15.73;69.02;98972.84;4949519;28;20051;-75
2021/07/22 02:07:02;;;;;;;0.20;0.20;;;;;;;15.78;68.82;98967.63;4953559;28;20473;-76
2021/07/22 02:09:33;;;;;;;0.15;0.15;;;;;;;15.80;68.96;98969.13;4977915;28;20471;-75
2021/07/22 02:12:00;;;;;;;0.10;0.10;;;;;;;15.81;68.51;98965.34;4968422;28;20051;-75
2021/07/22 02:14:26;;;;;;;0.10;0.10;;;;;;;15.82;68.71;98966.19;4943400;28;20112;-75
2021/07/22 02:16:55;;;;;;;0.20;0.20;;;;;;;15.82;68.20;98966.19;4960500;28;20070;-75
2021/07/22 02:19:22;;;;;;;0.10;0.10;;;;;;;15.82;68.15;98971.63;4962970;28;20114;-76
2021/07/22 02:21:53;;;;;;;0.10;0.10;;;;;;;15.84;68.02;98975.00;4945759;28;20134;-78
2021/07/22 02:24:20;;;;;;;0.10;0.10;;;;;;;15.85;67.71;98971.22;4962972;28;20138;-77
2021/07/22 02:27:09;;;;;;;0.10;0.10;;;;;;;15.84;67.72;98972.28;4963546;28;20039;-77
2021/07/22 02:29:35;;;;;;;0.10;0.10;;;;;;;15.83;67.21;98968.72;4970803;28;20051;-75
2021/07/22 02:32:03;;;;;;;0.20;0.20;;;;;;;15.91;66.65;98981.34;4956547;28;20411;-76
2021/07/22 02:34:29;;;;;;;0.10;0.10;;;;;;;15.93;66.08;98970.22;4936425;29;20051;-76
2021/07/22 02:37:00;;;;;;;0.10;0.10;;;;;;;16.02;65.78;98979.91;4958783;28;20525;-74
2021/07/22 02:39:46;;;;;;;0.10;0.10;;;;;;;16.06;65.36;98984.75;4940906;28;20137;-76
2021/07/22 02:42:12;;;;;;;0.10;0.10;;;;;;;16.10;64.75;98980.56;4934938;28;20046;-76
2021/07/22 02:44:39;;;;;;;0.15;0.15;;;;;;;16.18;64.12;98995.91;4970585;28;20150;-76
2021/07/22 02:47:17;;;;;;;0.20;0.20;;;;;;;16.26;63.46;98994.91;4966735;28;20058;-75
2021/07/22 02:49:43;;;;;;;0.17;0.17;;;;;;;16.27;63.00;98997.44;4956327;28;20055;-76
2021/07/22 02:52:13;;;;;;;0.13;0.13;;;;;;;16.32;62.71;99000.38;4948365;28;20051;-79
2021/07/22 02:54:43;;;;;;;0.10;0.10;;;;;;;16.47;62.29;98985.75;4965015;28;20066;-78
2021/07/22 02:57:10;;;;;;;0.20;0.20;;;;;;;16.57;62.06;98997.94;4967290;28;20038;-77
2021/07/22 02:59:38;;;;;;;0.20;0.20;;;;;;;16.72;61.67;99005.97;4949594;28;20054;-79
2021/07/22 03:02:04;;;;;;;0.10;0.10;;;;;;;16.81;61.56;99001.16;4953722;28;20508;-75
2021/07/22 03:04:31;;;;;;;0.20;0.20;;;;;;;16.85;60.91;99005.16;4967294;28;20075;-76
2021/07/22 03:07:16;;;;;;;0.20;0.20;;;;;;;16.91;60.61;99003.50;4940940;28;20047;-75
2021/07/22 03:09:42;;;;;;;0.17;0.17;;;;;;;16.97;60.27;99006.25;4965487;28;20043;-78
2021/07/22 03:12:09;;;;;;;0.20;0.20;;;;;;;17.18;59.79;99018.00;4976286;28;20539;-77
2021/07/22 03:14:46;;;;;;;0.10;0.10;;;;;;;17.30;58.72;99019.91;4965348;28;20130;-77
2021/07/22 03:17:13;;;;;;;0.10;0.10;;;;;;;17.47;58.32;99025.78;4958144;28;20043;-76
2021/07/22 03:19:46;;;;;;;0.20;0.20;;;;;;;17.48;57.57;99026.66;4974574;28;20567;-79
2021/07/22 03:22:14;;;;;;;0.20;0.20;;;;;;;17.49;57.63;99026.44;4958105;28;20050;-76
2021/07/22 03:24:40;;;;;;;0.20;0.20;;;;;;;17.74;56.95;99031.25;4951663;28;20039;-77
2021/07/22 03:27:15;;;;;;;0.20;0.20;;;;;;;17.78;56.25;99027.06;4954018;28;20051;-77
2021/07/22 03:29:43;;;;;;;0.20;0.20;;;;;;;17.79;56.25;99026.00;4947956;28;20041;-76
2021/07/22 03:32:09;;;;;;;0.10;0.10;;;;;;;18.03;55.53;99028.03;4952373;28;20081;-76
2021/07/22 03:34:35;;;;;;;0.20;0.20;;;;;;;18.23;54.86;99038.06;4982312;28;20094;-76
2021/07/22 03:37:08;;;;;;;0.20;0.20;;;;;;;18.43;54.38;99040.72;4956708;28;20046;-78
2021/07/22 03:39:35;;;;;;;0.20;0.20;;;;;;;18.40;53.61;99036.53;4965670;28;20066;-75
2021/07/22 03:42:05;;;;;;;0.20;0.20;;;;;;;18.50;53.52;99036.94;4983366;28;20050;-77
2021/07/22 03:45:03;;;;;;;0.20;0.20;;;;;;;18.73;53.06;99052.00;4961248;28;20043;-77
2021/07/22 03:47:33;;;;;;;0.20;0.20;;;;;;;18.85;52.39;99050.25;4954042;28;20058;-76
2021/07/22 03:50:00;;;;;;;0.20;0.20;;;;;;;19.06;51.65;99045.50;4952208;28;20046;-78
2021/07/22 03:52:53;;;;;;;0.20;0.20;;;;;;;19.04;51.33;99054.75;4961292;28;20054;-77
2021/07/22 03:55:20;;;;;;;0.20;0.20;;;;;;;19.12;51.07;99056.38;4948075;29;20118;-77
2021/07/22 03:58:04;;;;;;;0.20;0.20;;;;;;;19.24;50.71;99059.28;4958401;28;20043;-80
2021/07/22 04:00:40;;;;;;;0.20;0.20;;;;;;;19.63;49.65;99051.81;4934721;28;20043;-79
2021/07/22 04:03:07;;;;;;;0.20;0.20;;;;;;;19.54;49.54;99053.13;4963694;28;20113;-79
2021/07/22 04:05:36;;;;;;;0.20;0.20;;;;;;;19.64;49.06;99053.50;4959210;28;20117;-77
2021/07/22 04:08:03;;;;;;;0.30;0.30;;;;;;;19.75;49.14;99048.13;4965300;28;20070;-76
2021/07/22 04:10:48;;;;;;;0.20;0.20;;;;;;;20.05;48.13;99049.31;4957624;28;20078;-77
2021/07/22 04:13:40;;;;;;;0.20;0.20;;;;;;;20.22;47.45;99045.72;4955893;28;20406;-78
2021/07/22 04:16:30;;;;;;;0.30;0.30;;;;;;;20.25;46.90;99052.66;4940836;28;20043;-77
2021/07/22 04:19:04;;;;;;;0.20;0.20;;;;;;;20.50;45.97;99057.25;4964799;28;20377;-77
2021/07/22 04:22:02;;;;;;;0.30;0.30;;;;;;;20.76;45.42;99054.16;4938579;28;20091;-77
2021/07/22 04:24:51;;;;;;;0.30;0.30;;;;;;;20.97;44.80;99062.97;4968785;28;20522;-76
2021/07/22 04:27:27;;;;;;;0.30;0.30;;;;;;;20.84;44.51;99058.50;4969265;28;20085;-77
2021/07/22 04:30:13;;;;;;;0.30;0.30;;;;;;;21.00;44.07;99057.03;4957023;28;20141;-76
2021/07/22 04:33:25;;;;;;;0.30;0.30;;;;;;;21.16;43.70;99061.84;4910933;29;20048;-79
2021/07/22 04:36:11;;;;;;;0.30;0.30;;;;;;;21.51;43.55;99069.38;4956890;28;20058;-77
2021/07/22 04:39:15;;;;;;;0.30;0.30;;;;;;;21.39;42.60;99055.59;4965599;28;20063;-78
2021/07/22 04:42:11;;;;;;;0.40;0.40;;;;;;;21.50;42.82;99070.44;4882733;28;20044;-78
2021/07/22 04:44:43;;;;;;;0.30;0.30;;;;;;;21.60;42.17;99062.44;4949258;28;20042;-78
2021/07/22 04:47:32;;;;;;;0.30;0.30;;;;;;;22.04;41.98;99073.94;4962041;28;20051;-80
2021/07/22 04:50:30;;;;;;;0.30;0.30;;;;;;;22.25;40.83;99061.50;4934018;28;20063;-77
2021/07/22 04:53:15;;;;;;;0.32;0.32;;;;;;;22.47;40.24;99079.06;4958196;28;20039;-77
2021/07/22 04:55:49;;;;;;;0.40;0.40;;;;;;;22.64;39.70;99073.66;4980640;28;20051;-80
2021/07/22 04:58:15;;;;;;;0.43;0.43;;;;;;;22.65;39.98;99080.84;4949744;28;20040;-76
2021/07/22 05:00:41;;;;;;;0.50;0.50;;;;;;;23.04;39.18;99072.81;4958580;28;20047;-79
2021/07/22 05:03:09;;;;;;;0.40;0.40;;;;;;;23.48;38.23;99084.09;4945339;29;20047;-76
2021/07/22 05:05:37;;;;;;;0.50;0.50;;;;;;;23.56;38.13;99084.53;4956879;28;20066;-76
2021/07/22 05:08:24;;;;;;;0.50;0.50;;;;;;;23.73;37.15;99081.81;4944235;28;20058;-78
2021/07/22 05:11:04;;;;;;;0.40;0.40;;;;;;;23.43;37.00;99087.59;4986553;28;20054;-80
2021/07/22 05:13:53;;;;;;;0.50;0.50;;;;;;;23.04;37.62;99083.84;4966627;28;20125;-77
2021/07/22 05:16:46;;;;;;;0.50;0.50;;;;;;;23.55;36.58;99080.09;4938645;28;20049;-79
2021/07/22 05:19:25;;;;;;;0.50;0.50;;;;;;;23.61;36.23;99081.00;4955280;28;20077;-81
2021/07/22 05:22:14;;;;;;;0.43;0.43;;;;;;;23.63;35.90;99092.63;4951911;28;20039;-79
2021/07/22 05:24:54;;;;;;;0.50;0.50;;;;;;;24.04;35.38;99074.00;4950863;28;20045;-80
2021/07/22 05:27:53;;;;;;;0.40;0.40;;;;;;;24.62;34.17;99078.16;4897094;28;20144;-80
2021/07/22 05:30:28;;;;;;;0.50;0.50;;;;;;;24.80;33.97;99081.69;4964954;28;20050;-80
2021/07/22 05:33:08;;;;;;;0.50;0.50;;;;;;;24.78;33.65;99093.81;4968138;28;20051;-80
2021/07/22 05:35:56;;;;;;;0.50;0.50;;;;;;;25.14;33.06;99074.06;4939286;28;20098;-82
2021/07/22 05:39:01;;;;;;;0.50;0.50;;;;;;;25.61;32.51;99090.84;4928359;29;20062;-81
2021/07/22 05:41:32;;;;;;;0.50;0.50;;;;;;;25.44;32.53;99087.38;4900866;28;20134;-82
2021/07/22 05:44:04;;;;;;;0.50;0.50;;;;;;;25.72;31.91;99081.53;4986495;28;20045;-81
2021/07/22 05:46:33;;;;;;;0.50;0.50;;;;;;;25.63;32.21;99091.44;4970668;28;20074;-81
2021/07/22 05:49:00;;;;;;;0.50;0.50;;;;;;;26.02;31.67;99077.34;4985577;28;20054;-80
2021/07/22 05:51:33;;;;;;;0.60;0.60;;;;;;;26.17;31.41;99084.94;4947018;28;20053;-81
2021/07/22 05:54:10;;;;;;;0.60;0.60;;;;;;;26.20;30.85;99093.56;4969983;28;20122;-82
2021/07/22 05:56:41;;;;;;;0.57;0.57;;;;;;;25.99;31.61;99086.19;4957246;28;20038;-80
2021/07/22 05:59:07;;;;;;;0.60;0.60;;;;;;;27.03;30.22;99087.31;4958446;28;20428;-81
2021/07/22 06:01:43;;;;;;;0.60;0.60;;;;;;;27.44;29.65;99086.63;4982265;28;20042;-79
2021/07/22 06:04:11;;;;;;;0.60;0.60;;;;;;;27.45;29.98;99091.88;4927518;29;20055;-79
2021/07/22 06:06:42;;;;;;;0.70;0.70;;;;;;;27.72;29.34;99090.81;4927829;29;20114;-79
2021/07/22 06:09:17;;;;;;;0.60;0.60;;;;;;;27.36;29.95;99088.81;4894354;29;20060;-80
2021/07/22 06:11:44;;;;;;;0.70;0.70;;;;;;;27.57;28.76;99095.25;4941238;28;20059;-80
2021/07/22 06:14:21;;;;;;;0.60;0.60;;;;;;;27.34;29.24;99106.84;4899257;29;20195;-77
2021/07/22 06:16:48;;;;;;;0.60;0.60;;;;;;;28.19;27.79;99103.56;4898948;29;20776;-78
2021/07/22 06:19:20;;;;;;;0.70;0.70;;;;;;;28.58;27.23;99104.63;4915459;29;20090;-79
2021/07/22 06:21:49;;;;;;;0.60;0.60;;;;;;;28.34;27.19;99093.28;4943376;28;20084;-78
2021/07/22 06:24:15;;;;;;;0.70;0.70;;;;;;;28.72;26.54;99093.72;4944104;28;20526;-78
2021/07/22 06:26:56;;;;;;;0.75;0.75;;;;;;;28.47;26.78;99094.63;4949688;29;20062;-81
2021/07/22 06:29:22;;;;;;;0.75;0.75;;;;;;;28.88;26.33;99102.84;4919536;28;20059;-78
2021/07/22 06:31:49;;;;;;;0.70;0.70;;;;;;;28.82;26.81;99098.44;4916050;28;20070;-80
2021/07/22 06:34:18;;;;;;;0.70;0.70;;;;;;;29.53;25.32;99102.78;4952801;28;20043;-80
2021/07/22 06:36:45;;;;;;;0.88;0.88;;;;;;;29.09;25.63;99095.25;4931305;28;20038;-78
2021/07/22 06:39:11;;;;;;;0.70;0.70;;;;;;;29.51;25.24;99099.47;4962812;28;20044;-80
2021/07/22 06:41:37;;;;;;;0.70;0.70;;;;;;;29.75;24.92;99102.38;4951106;28;20058;-79
2021/07/22 06:44:03;;;;;;;0.70;0.70;;;;;;;30.06;24.73;99099.31;4964425;28;20047;-82
2021/07/22 06:46:30;;;;;;;0.80;0.80;;;;;;;29.73;25.08;99096.28;4950140;28;20336;-82
2021/07/22 06:48:57;;;;;;;0.70;0.70;;;;;;;30.41;24.13;99098.97;4966949;28;20050;-80
2021/07/22 06:51:26;;;;;;;0.70;0.70;;;;;;;30.08;24.51;99089.53;4970133;28;20078;-83
2021/07/22 06:53:53;;;;;;;0.80;0.80;;;;;;;30.35;24.49;99086.25;4935719;28;20107;-80
2021/07/22 06:56:19;;;;;;;0.93;0.93;;;;;;;30.51;23.88;99089.69;4971707;28;20047;-82
2021/07/22 06:58:48;;;;;;;0.80;0.80;;;;;;;30.96;23.08;99082.72;4967308;28;20388;-80
2021/07/22 07:01:15;;;;;;;1.02;1.02;;;;;;;31.23;22.79;99089.63;4947736;28;20054;-78
2021/07/22 07:03:41;;;;;;;0.80;0.80;;;;;;;30.68;23.01;99094.78;4950326;28;20416;-81
2021/07/22 07:06:07;;;;;;;0.80;0.80;;;;;;;31.61;22.12;99089.63;4967694;28;20505;-80
2021/07/22 07:08:33;;;;;;;0.80;0.80;;;;;;;32.06;21.97;99101.22;4951548;28;20536;-84
2021/07/22 07:11:00;;;;;;;1.10;1.10;;;;;;;32.44;21.34;99101.13;4947926;28;20039;-82
2021/07/22 07:13:26;;;;;;;0.95;0.95;;;;;;;32.02;21.02;99111.34;4986558;28;20039;-82
2021/07/22 07:15:56;;;;;;;1.05;1.05;;;;;;;32.14;21.30;99098.56;4972097;28;20045;-81
2021/07/22 07:18:23;;;;;;;0.90;0.90;;;;;;;32.53;20.59;99099.25;4965641;28;20126;-83
2021/07/22 07:20:50;;;;;;;0.90;0.90;;;;;;;32.95;20.16;99094.53;4980527;28;20177;-81
2021/07/22 07:23:16;;;;;;;0.95;0.95;;;;;;;33.42;20.17;99097.94;4945373;28;20413;-82
2021/07/22 07:25:42;;;;;;;0.80;0.80;;;;;;;32.89;20.75;99097.38;4950937;28;20485;-81
2021/07/22 07:28:08;;;;;;;0.90;0.90;;;;;;;31.34;21.65;99101.53;4979422;28;20072;-81
2021/07/22 07:30:34;;;;;;;0.90;0.90;;;;;;;32.06;21.24;99101.22;4950312;28;20034;-80
2021/07/22 07:33:01;;;;;;;0.90;0.90;;;;;;;33.03;20.16;99105.00;4964756;28;20556;-79
2021/07/22 07:35:27;;;;;;;0.90;0.90;;;;;;;33.15;19.81;99099.66;4965001;28;20145;-80
2021/07/22 07:37:53;;;;;;;0.90;0.90;;;;;;;32.56;19.01;99107.03;4949002;28;20078;-81
2021/07/22 07:40:19;;;;;;;1.00;1.00;;;;;;;32.04;19.83;99095.13;4967593;28;20449;-82
2021/07/22 07:42:46;;;;;;;1.00;1.00;;;;;;;32.47;18.93;99092.09;4954145;28;20046;-81
2021/07/22 07:45:12;;;;;;;0.98;0.98;;;;;;;33.25;18.39;99095.81;4945904;28;20059;-82
2021/07/22 07:47:38;;;;;;;1.10;1.10;;;;;;;33.30;18.42;99090.91;4948569;28;20065;-80
2021/07/22 07:50:07;;;;;;;1.00;1.00;;;;;;;32.47;19.19;99098.53;4940336;28;20043;-82
2021/07/22 07:52:36;;;;;;;1.00;1.00;;;;;;;32.60;19.17;99083.72;4963396;28;20533;-81
2021/07/22 07:55:04;;;;;;;0.90;0.90;;;;;;;32.81;18.63;99084.13;4924831;28;20050;-82
2021/07/22 07:57:31;;;;;;;0.98;0.98;;;;;;;32.28;19.89;99092.97;4971193;28;20115;-81
2021/07/22 07:59:57;;;;;;;1.17;1.17;;;;;;;32.46;18.86;99099.66;4965101;28;20054;-78
2021/07/22 08:02:24;;;;;;;1.08;1.08;;;;;;;32.35;18.57;99085.00;4957132;28;20042;-81
2021/07/22 08:04:50;;;;;;;1.10;1.10;;;;;;;32.68;18.15;99090.53;4972238;28;20050;-81
2021/07/22 08:07:17;;;;;;;1.10;1.10;;;;;;;33.35;17.13;99099.22;4935646;28;20046;-81
2021/07/22 08:09:47;;;;;;;1.00;1.00;;;;;;;33.51;16.87;99094.09;4940490;28;20201;-80
2021/07/22 08:12:13;;;;;;;1.02;1.02;;;;;;;32.92;17.25;99095.94;4984760;28;20042;-83
2021/07/22 08:14:41;;;;;;;1.00;1.00;;;;;;;33.02;17.08;99094.91;4974083;28;20053;-81
2021/07/22 08:17:07;;;;;;;1.20;1.20;;;;;;;32.63;17.41;99099.06;4977877;28;20106;-82
2021/07/22 08:19:34;;;;;;;1.10;1.10;;;;;;;32.65;17.20;99072.44;4973825;28;20046;-82
2021/07/22 08:22:01;;;;;;;1.10;1.10;;;;;;;32.96;16.95;99101.78;4989946;28;20054;-83
2021/07/22 08:24:29;;;;;;;1.10;1.10;;;;;;;33.09;17.00;99100.91;4972869;28;20035;-82
2021/07/22 08:26:55;;;;;;;1.00;1.00;;;;;;;32.76;17.46;99075.00;4972821;28;20065;-80
2021/07/22 08:29:22;;;;;;;1.10;1.10;;;;;;;32.52;16.95;99094.81;4971794;28;20038;-83
2021/07/22 08:31:49;;;;;;;1.10;1.10;;;;;;;33.57;16.97;99092.03;4966509;28;20110;-81
2021/07/22 08:34:17;;;;;;;1.20;1.20;;;;;;;34.49;15.85;99092.47;4958749;28;20034;-82
2021/07/22 08:36:46;;;;;;;1.20;1.20;;;;;;;34.78;15.79;99087.16;4965259;28;20504;-83
2021/07/22 08:39:16;;;;;;;1.00;1.00;;;;;;;33.61;16.44;99084.63;4981175;28;20077;-83
2021/07/22 08:41:47;;;;;;;1.10;1.10;;;;;;;33.13;16.70;99079.56;4934450;28;20540;-83
2021/07/22 08:44:15;;;;;;;1.20;1.20;;;;;;;32.22;18.03;99082.22;4977191;28;20031;-81
2021/07/22 08:46:47;;;;;;;1.00;1.00;;;;;;;33.53;17.40;99076.97;4971108;28;20050;-83
2021/07/22 08:49:14;;;;;;;1.10;1.10;;;;;;;33.54;16.85;99089.84;4964329;28;20392;-82
2021/07/22 08:51:43;;;;;;;1.10;1.10;;;;;;;33.76;17.21;99073.03;4944852;28;20055;-84
2021/07/22 08:54:09;;;;;;;1.10;1.10;;;;;;;34.54;16.59;99089.53;4972436;28;20050;-80
2021/07/22 08:56:36;;;;;;;1.10;1.10;;;;;;;34.68;16.23;99090.25;4961448;28;20364;-81
2021/07/22 08:59:03;;;;;;;1.10;1.10;;;;;;;34.19;16.76;99083.75;4973455;28;20691;-84
2021/07/22 09:01:33;;;;;;;1.02;1.02;;;;;;;34.13;16.55;99084.19;4974591;28;20050;-83
2021/07/22 09:03:59;;;;;;;1.10;1.10;;;;;;;34.25;16.78;99081.59;4955468;28;20035;-80
2021/07/22 09:06:26;;;;;;;1.10;1.10;;;;;;;34.78;15.79;99091.94;4971421;28;20057;-82
2021/07/22 09:08:55;;;;;;;1.02;1.02;;;;;;;35.39;15.49;99092.09;4970401;28;20043;-80
2021/07/22 09:11:21;;;;;;;1.00;1.00;;;;;;;35.80;15.31;99102.03;4935370;28;20134;-80
2021/07/22 09:14:07;;;;;;;0.90;0.90;;;;;;;36.03;14.91;99099.91;4967972;28;20170;-83
2021/07/22 09:16:37;;;;;;;1.00;1.00;;;;;;;35.53;15.74;99084.34;4978033;28;20051;-83
2021/07/22 09:19:03;;;;;;;1.00;1.00;;;;;;;35.96;15.75;99094.75;4980910;28;20047;-81
2021/07/22 09:21:30;;;;;;;0.10;0.10;;;;;;;34.52;16.99;99086.25;4992595;28;20047;-81
2021/07/22 09:24:05;;;;;;;1.00;1.00;;;;;;;34.33;16.88;99087.25;4975961;28;20059;-82
2021/07/22 09:26:34;;;;;;;0.90;0.90;;;;;;;35.13;16.56;99084.44;4988911;28;20062;-82
2021/07/22 09:29:03;;;;;;;1.00;1.00;;;;;;;34.95;16.57;99075.13;4942251;28;20042;-82
2021/07/22 09:31:30;;;;;;;0.20;0.20;;;;;;;35.34;16.28;99066.97;4955338;28;20526;-80
2021/07/22 09:33:56;;;;;;;1.10;1.10;;;;;;;34.89;16.51;99072.81;4952768;28;20046;-81
2021/07/22 09:36:28;;;;;;;1.20;1.20;;;;;;;35.51;15.90;99078.25;4966422;28;20050;-81
2021/07/22 09:39:21;;;;;;;0.90;0.90;;;;;;;35.89;15.59;99080.34;4964304;28;20530;-83
2021/07/22 09:42:00;;;;;;;1.05;1.05;;;;;;;34.91;16.34;99076.09;4966746;28;20192;-82
2021/07/22 09:44:30;;;;;;;0.90;0.90;;;;;;;35.57;15.87;99082.53;4965246;28;20069;-81
2021/07/22 09:46:57;;;;;;;0.93;0.93;;;;;;;35.83;15.58;99084.50;4969591;28;20185;-79
2021/07/22 09:49:33;;;;;;;0.80;0.80;;;;;;;35.92;15.07;99083.31;4963587;28;20110;-80
2021/07/22 09:52:02;;;;;;;0.80;0.80;;;;;;;36.22;15.24;99075.84;4979324;28;20043;-82
2021/07/22 09:54:34;;;;;;;0.80;0.80;;;;;;;36.27;15.06;99082.44;4944471;28;20031;-82
2021/07/22 09:57:02;;;;;;;0.70;0.70;;;;;;;35.10;16.00;99073.03;4960847;28;20050;-80
2021/07/22 09:59:32;;;;;;;1.00;1.00;;;;;;;34.78;16.00;99083.53;4968194;28;20222;-79
2021/07/22 10:02:02;;;;;;;0.10;0.10;;;;;;;33.15;17.78;99074.44;4973168;28;20050;-82
2021/07/22 10:04:30;;;;;;;1.00;1.00;;;;;;;33.34;17.08;99074.28;4964675;28;20500;-81
2021/07/22 10:07:00;;;;;;;0.20;0.20;;;;;;;33.30;17.44;99067.66;4966085;28;20074;-81
2021/07/22 10:09:32;;;;;;;0.60;0.60;;;;;;;33.01;17.31;99066.06;4985059;28;20043;-82
2021/07/22 10:12:00;;;;;;;0.80;0.80;;;;;;;33.78;16.27;99079.13;4969203;28;20700;-80
2021/07/22 10:14:27;;;;;;;0.90;0.90;;;;;;;33.94;15.66;99075.97;4950134;28;20054;-81
2021/07/22 10:16:54;;;;;;;0.80;0.80;;;;;;;34.36;15.81;99070.94;4966712;28;20043;-80
2021/07/22 10:19:22;;;;;;;1.00;0.90;;;;;;;34.29;15.72;99086.25;4939941;28;20057;-80
2021/07/22 10:21:49;;;;;;;0.80;0.80;;;;;;;34.95;15.54;99068.69;4958880;28;20092;-83
2021/07/22 10:24:16;;;;;;;0.80;0.80;;;;;;;35.16;15.81;99078.16;4948795;28;20042;-83
2021/07/22 10:26:43;;;;;;;0.80;0.80;;;;;;;34.28;16.28;99073.38;4952455;28;20038;-83
2021/07/22 10:29:11;;;;;;;0.82;0.82;;;;;;;34.74;16.01;99071.28;4939136;28;20042;-83
2021/07/22 10:31:43;;;;;;;0.90;0.90;;;;;;;34.14;16.66;99072.63;4930840;28;20043;-82
2021/07/22 10:34:12;;;;;;;0.80;0.80;;;;;;;34.82;16.26;99069.66;4964065;28;20043;-82
2021/07/22 10:36:40;;;;;;;0.90;0.90;;;;;;;34.98;15.63;99059.59;4966657;28;20405;-82
2021/07/22 10:39:07;;;;;;;0.82;0.82;;;;;;;34.99;16.32;99072.47;4962797;28;20126;-81
2021/07/22 10:41:35;;;;;;;0.90;0.90;;;;;;;35.02;15.67;99077.47;4965425;28;20043;-81
2021/07/22 10:44:02;;;;;;;0.90;0.90;;;;;;;35.00;15.66;99069.41;4965388;28;20046;-82
2021/07/22 10:46:57;;;;;;;0.80;0.80;;;;;;;34.60;16.00;99077.00;4955570;28;20046;-80
2021/07/22 10:49:38;;;;;;;0.70;0.70;;;;;;;35.58;15.02;99077.72;4951259;28;20073;-82
2021/07/22 10:52:04;;;;;;;0.80;0.80;;;;;;;34.08;16.04;99071.13;4949521;28;20485;-82
2021/07/22 10:54:48;;;;;;;0.90;0.90;;;;;;;33.02;16.60;99066.91;4969045;28;20626;-80
2021/07/22 10:57:44;;;;;;;0.80;0.80;;;;;;;32.96;16.36;99074.59;4963685;28;20062;-81
2021/07/22 11:00:10;;;;;;;0.75;0.75;;;;;;;33.17;16.71;99063.78;4938717;28;20046;-83
2021/07/22 11:02:45;;;;;;;0.82;0.82;;;;;;;33.42;16.53;99075.50;4981830;28;20043;-80
2021/07/22 11:05:24;;;;;;;0.98;0.98;;;;;;;33.95;15.72;99086.03;4965127;28;20046;-80
2021/07/22 11:08:29;;;;;;;0.80;0.80;;;;;;;34.45;15.14;99083.03;4984821;28;20054;-81
2021/07/22 11:11:04;;;;;;;0.80;0.80;;;;;;;34.42;15.21;99075.25;4923240;29;20042;-81
2021/07/22 11:13:40;;;;;;;0.88;0.88;;;;;;;32.87;16.14;99080.09;4916737;29;20587;-82
2021/07/22 11:16:25;;;;;;;0.90;0.90;;;;;;;33.04;15.87;99081.44;4943762;28;20142;-82
2021/07/22 11:18:53;;;;;;;0.70;0.70;;;;;;;33.89;15.52;99078.88;4962091;28;20079;-80
2021/07/22 11:21:33;;;;;;;0.80;0.80;;;;;;;33.49;16.32;99070.31;4968743;28;20054;-83
2021/07/22 11:24:09;;;;;;;0.80;0.80;;;;;;;33.90;15.89;99077.72;4949235;28;20512;-82
2021/07/22 11:26:40;;;;;;;0.80;0.80;;;;;;;32.39;16.96;99083.25;4956969;28;20127;-81
2021/07/22 11:29:08;;;;;;;0.80;0.80;;;;;;;32.39;16.69;99076.81;4963994;28;20035;-85
2021/07/22 11:31:45;;;;;;;0.80;0.80;;;;;;;33.42;16.21;99069.91;4967916;28;20062;-79
2021/07/22 11:34:12;;;;;;;0.85;0.85;;;;;;;33.68;15.78;99072.94;4933245;28;20122;-83
2021/07/22 11:36:39;;;;;;;0.80;0.80;;;;;;;33.39;16.21;99078.97;4966867;28;20093;-81
2021/07/22 11:39:05;;;;;;;0.90;0.90;;;;;;;33.30;16.85;99070.47;4953312;28;20621;-80
2021/07/22 11:41:32;;;;;;;0.80;0.80;;;;;;;33.71;16.08;99067.53;4966652;28;20137;-82
2021/07/22 11:44:00;;;;;;;0.80;0.80;;;;;;;33.37;16.45;99063.28;4968158;28;20047;-80
2021/07/22 11:46:39;;;;;;;0.80;0.80;;;;;;;33.19;16.41;99071.84;4968537;28;20090;-82
2021/07/22 11:49:09;;;;;;;0.80;0.80;;;;;;;32.39;17.66;99077.66;4966905;28;20094;-82
2021/07/22 11:51:37;;;;;;;0.88;0.88;;;;;;;32.62;16.95;99059.03;4984631;28;20463;-80
2021/07/22 11:54:03;;;;;;;0.90;0.90;;;;;;;33.33;17.29;99061.44;4970764;28;20390;-84